KRAP/RAP METAR and TAF weather

Enter ICAO airport designator
Station Type Date Time Source
KRAP METAR 2020/12/01 20:52 UTC NOAA

KRAP 012052Z 33035G48KT 10SM FEW028 04/M04 A3008 RMK AO2 PK WND 32052/2010 SLP202 T00391044 53014


Station Type Date Time Source
KRAP Decoded METAR 2020/12/01 20:52 UTC NOAA

RAPID CITY REGIONAL AIRPORT , SD, United States (KRAP) 44-03N 103-03W 965M
Dec 01, 2020 - 03:52 PM EST / 2020.12.01 2052 UTC
Wind: from the NNW (330 degrees) at 40 MPH (35 KT) gusting to 55 MPH (48 KT):0
Visibility: 10 mile(s):0
Sky conditions: mostly clear
Temperature: 39.0 F (3.9 C)
Dew Point: 24.1 F (-4.4 C)
Relative Humidity: 54%
Pressure (altimeter): 30.08 in. Hg (1018 hPa)
Pressure tendency: 0.04 inches (1.4 hPa) higher than three hours ago
ob: KRAP 012052Z 33035G48KT 10SM FEW028 04/M04 A3008 RMK AO2 PK WND 32052/2010 SLP202 T00391044 53014
cycle: 21

Station Type Date Time Source
KRAP TAF 2020/12/01 18:41 UTC NOAA

TAF KRAP 011741Z 0118/0218 33033G45KT P6SM BKN090
FM020100 33017G25KT P6SM BKN040
FM021200 34018G28KT P6SM SCT040

Example: see airport list